Latest Weather Observations for Kadina

IDS60801

Issued at 10:31 am CDT Saturday 20 December 2014 (issued every 30 minutes, with the page automatically refreshed every 10 minutes)

About weather observations | Map of weather stations | Latest weather observations for SA | Other Formats
Station Details ID: 022050 Name: KADINA AWS Lat: -33.97 Lon: 137.66 Height: 41.14 m
Data from the previous 72 hours. | See also: Recent months at Kadina
Date/Time
CDT
Temp
°C
App
Temp
°C
Dew
Point
Rel
Hum
%
Delta-T
°C
Wind Press
QNH
hPa
Press
MSL
hPa
Rain
since 9 am
mm
Dir
 
Spd
km/h
Gust
km/h
Spd
kts
Gust
kts
20/10:30am 23.5 21.3 6.3 33 8.8 NW 7 11 4 6 1018.1 - 0.0
20/10:00am 23.3 21.6 8.2 38 8.0 E 7 9 4 5 1018.3 - 0.0
20/09:30am 22.6 20.9 8.3 40 7.6 E 7 13 4 7 1018.8 - 0.0
20/09:00am 21.1 18.6 8.4 44 6.7 NE 11 15 6 8 1019.0 1018.8 0.0
20/08:30am 20.2 17.2 9.2 49 5.8 E 15 20 8 11 1018.7 - 0.0
20/08:00am 18.0 15.1 9.6 58 4.4 E 15 19 8 10 1018.8 - 0.0
20/07:30am 15.3 12.3 9.4 68 3.0 ESE 15 17 8 9 1018.7 - 0.0
20/07:00am 12.4 9.3 8.9 79 1.8 ESE 15 17 8 9 1018.4 - 0.0
20/06:30am 10.0 7.0 7.6 85 1.1 ESE 13 15 7 8 1018.3 - 0.0
20/06:00am 10.2 6.4 7.6 84 1.2 ESE 17 20 9 11 1018.2 1018.0 0.0
20/05:30am 9.9 6.1 7.5 85 1.1 ESE 17 19 9 10 1018.1 - 0.0
20/05:00am 10.7 7.0 7.9 83 1.4 E 17 19 9 10 1018.1 - 0.0
20/04:30am 11.6 8.3 8.1 79 1.7 E 15 17 8 9 1017.9 - 0.0
20/04:00am 13.1 9.6 8.8 75 2.2 E 17 20 9 11 1017.9 - 0.0
20/03:30am 13.2 9.7 8.9 75 2.2 E 17 20 9 11 1017.7 - 0.0
20/03:00am 13.3 9.9 9.2 76 2.1 E 17 20 9 11 1017.9 1017.7 0.0
20/02:30am 13.2 10.0 10.0 81 1.7 ESE 17 20 9 11 1018.2 - 0.0
20/02:00am 14.0 11.0 10.6 80 1.8 ESE 17 20 9 11 1018.5 - 0.0
20/01:30am 14.5 11.2 10.9 79 1.9 SE 19 22 10 12 1018.8 - 0.0
20/01:00am 14.2 11.3 11.0 81 1.7 SE 17 20 9 11 1019.2 - 0.0
20/12:30am 14.1 11.1 10.7 80 1.8 SE 17 20 9 11 1019.5 - 0.0
20/12:00am 14.6 11.6 10.6 77 2.1 SE 17 20 9 11 1019.8 1019.6 0.0
 
Date/Time
CDT
Temp
°C
App
Temp
°C
Dew
Point
Rel
Hum
%
Delta-T
°C
Wind Press
QNH
hPa
Press
MSL
hPa
Rain
since 9 am
mm
Dir
 
Spd
km/h
Gust
km/h
Spd
kts
Gust
kts
19/11:30pm 15.0 11.6 10.4 74 2.4 SE 19 24 10 13 1019.9 - 0.0
19/11:00pm 14.1 11.1 9.1 72 2.5 SE 15 17 8 9 1020.3 - 0.0
19/10:30pm 14.9 12.0 9.5 70 2.8 SSE 15 17 8 9 1020.4 - 0.0
19/10:00pm 15.1 12.7 10.1 72 2.6 SSE 13 15 7 8 1020.4 - 0.0
19/09:30pm 15.7 13.7 10.2 70 2.9 SSE 11 17 6 9 1020.2 - 0.0
19/09:00pm 17.3 14.0 10.9 66 3.4 S 19 24 10 13 1019.8 1019.6 0.0
19/08:30pm 18.5 14.2 10.8 61 4.2 S 24 30 13 16 1019.8 - 0.0
19/08:00pm 19.9 14.7 10.3 54 5.2 S 28 37 15 20 1019.7 - 0.0
19/07:30pm 20.6 15.4 10.4 52 5.5 SSW 28 37 15 20 1019.5 - 0.0
19/07:00pm 21.3 16.1 10.2 49 6.0 SSW 28 39 15 21 1019.2 - 0.0
19/06:30pm 21.6 15.5 10.4 49 6.1 SSW 33 43 18 23 1019.0 - 0.0
19/06:00pm 22.4 17.2 10.2 46 6.7 SSW 28 44 15 24 1018.9 1018.7 0.0
19/05:30pm 22.5 17.3 10.3 46 6.7 SW 28 37 15 20 1018.9 - 0.0
19/05:00pm 22.7 16.6 10.5 46 6.7 SW 33 43 18 23 1019.0 - 0.0
19/04:30pm 22.6 16.4 10.1 45 6.8 SW 33 44 18 24 1019.0 - 0.0
19/04:00pm 22.3 15.8 9.1 43 7.1 WSW 33 46 18 25 1019.3 - 0.0
19/03:30pm 22.1 15.3 7.5 39 7.6 WSW 33 44 18 24 1019.5 - 0.0
19/03:00pm 22.1 15.8 7.5 39 7.6 WSW 30 39 16 21 1019.9 1019.7 0.0
19/02:30pm 22.1 15.5 8.6 42 7.2 WSW 33 44 18 24 1019.9 - 0.0
19/02:00pm 22.1 15.4 9.6 45 6.7 WSW 35 44 19 24 1019.9 - 0.0
19/01:30pm 22.6 17.4 9.0 42 7.3 SW 26 37 14 20 1020.2 - 0.0
19/01:00pm 21.8 16.0 8.0 41 7.2 SW 28 39 15 21 1020.2 - 0.0
19/12:30pm 22.1 16.5 7.1 38 7.7 SW 26 43 14 23 1020.4 - 0.0
19/12:00pm 21.6 17.7 7.1 39 7.4 SW 17 28 9 15 1020.6 1020.4 0.0
19/11:30am 21.0 17.7 6.5 39 7.3 WSW 13 20 7 11 1020.8 - 0.0
19/11:00am 20.3 18.0 7.3 43 6.7 W 9 19 5 10 1020.9 - 0.0
19/10:30am 20.4 18.2 7.7 44 6.6 SW 9 17 5 9 1020.8 - 0.0
19/10:00am 19.3 17.4 7.7 47 5.9 W 7 11 4 6 1020.9 - 0.0
19/09:30am 18.7 16.4 7.5 48 5.7 S 9 15 5 8 1021.1 - 0.0
19/09:00am 17.6 13.7 5.5 45 5.8 SSW 15 20 8 11 1020.9 1020.7 0.0
19/08:30am 17.8 13.7 6.0 46 5.8 S 17 22 9 12 1020.5 - 0.0
19/08:00am 16.9 12.6 7.8 55 4.6 S 20 24 11 13 1020.1 - 0.0
19/07:30am 15.5 12.2 8.0 61 3.8 SSE 15 22 8 12 1019.5 - 0.0
19/07:00am 13.8 10.8 7.8 67 3.0 SSE 13 17 7 9 1019.2 - 0.0
19/06:30am 11.0 8.0 7.5 79 1.7 SSE 13 15 7 8 1018.9 - 0.0
19/06:00am 10.1 7.2 6.6 79 1.6 SSE 11 15 6 8 1018.8 1018.6 0.0
19/05:30am 10.8 7.2 6.9 77 1.9 SSE 15 17 8 9 1018.5 - 0.0
19/05:00am 10.9 7.2 6.5 74 2.1 SSE 15 17 8 9 1018.3 - 0.0
19/04:30am 11.5 7.4 6.4 71 2.4 S 17 20 9 11 1018.2 - 0.0
19/04:00am 11.7 7.6 6.2 69 2.6 SSE 17 20 9 11 1018.1 - 0.0
19/03:30am 11.6 7.9 6.1 69 2.6 SSE 15 19 8 10 1018.1 - 0.0
19/03:00am 11.9 7.8 6.2 68 2.7 SSE 17 20 9 11 1018.1 1017.9 0.0
19/02:30am 11.7 7.7 6.6 71 2.4 SSE 17 20 9 11 1018.2 - 0.0
19/02:00am 11.4 7.5 7.1 75 2.1 S 17 20 9 11 1018.3 - 0.0
19/01:30am 10.2 6.1 6.4 77 1.8 S 17 17 9 9 1018.5 - 0.0
19/01:00am 11.0 7.1 6.9 76 1.9 S 17 19 9 10 1018.4 - 0.0
19/12:30am 11.7 8.1 6.8 72 2.3 S 15 17 8 9 1018.5 - 0.0
19/12:00am 13.1 9.4 7.8 70 2.6 S 17 20 9 11 1018.5 1018.3 0.0
 
Date/Time
CDT
Temp
°C
App
Temp
°C
Dew
Point
Rel
Hum
%
Delta-T
°C
Wind Press
QNH
hPa
Press
MSL
hPa
Rain
since 9 am
mm
Dir
 
Spd
km/h
Gust
km/h
Spd
kts
Gust
kts
18/11:30pm 13.1 9.4 7.8 70 2.6 S 17 20 9 11 1018.2 - 0.0
18/11:00pm 14.1 10.3 7.6 65 3.2 SSW 17 20 9 11 1017.9 - 0.0
18/10:30pm 14.7 11.1 8.2 65 3.3 SSW 17 20 9 11 1017.7 - 0.0
18/10:00pm 15.3 11.1 7.6 60 3.8 SSW 19 24 10 13 1017.4 - 0.0
18/09:30pm 16.1 11.2 8.6 61 3.8 SSW 24 32 13 17 1017.3 - 0.0
18/09:00pm 16.5 11.8 9.4 63 3.7 SSW 24 30 13 16 1016.8 1016.6 0.0
18/08:30pm 17.3 11.0 7.4 52 5.0 SSW 30 39 16 21 1016.4 - 0.0
18/08:00pm 18.2 11.6 8.7 54 4.9 SSW 33 44 18 24 1015.9 - 0.0
18/07:30pm 19.1 11.7 6.9 45 6.1 SSW 35 44 19 24 1015.6 - 0.0
18/07:00pm 20.0 12.5 8.0 46 6.2 SSW 37 50 20 27 1015.1 - 0.0
18/06:30pm 20.5 13.8 8.2 45 6.4 SSW 33 46 18 25 1014.8 - 0.0
18/06:00pm 21.3 13.9 8.2 43 6.9 SSW 37 52 20 28 1014.5 1014.2 0.0
18/05:30pm 22.3 16.0 8.8 42 7.2 SSW 32 44 17 24 1014.3 - 0.0
18/05:00pm 22.9 16.6 9.0 41 7.5 SSW 32 43 17 23 1014.0 - 0.0
18/04:30pm 22.9 16.6 9.0 41 7.5 SW 32 46 17 25 1014.0 - 0.0
18/04:00pm 23.0 16.9 9.8 43 7.2 SW 32 44 17 24 1013.7 - 0.0
18/03:30pm 23.2 17.3 10.6 45 7.0 SSW 32 44 17 24 1013.7 - 0.0
18/03:00pm 23.0 16.5 9.0 41 7.5 SW 33 46 18 25 1013.6 1013.3 0.0
18/02:30pm 23.7 17.4 9.7 41 7.6 SSW 33 46 18 25 1013.4 - 0.0
18/02:00pm 23.2 17.3 10.3 44 7.1 SW 32 46 17 25 1013.5 - 0.0
18/01:35pm 23.2 18.3 11.3 47 6.7 SW 28 46 15 25 1013.4 - 0.0
18/01:30pm 22.6 17.1 10.7 47 6.6 SW 30 46 16 25 1013.4 - 0.0
18/01:29pm 23.0 17.8 10.4 45 6.9 SW 28 46 15 25 1013.4 - 0.0
18/01:00pm 21.6 15.7 10.4 49 6.1 SW 32 46 17 25 1013.5 - 0.0
18/12:30pm 21.5 16.3 11.5 53 5.6 WSW 30 43 16 23 1013.8 - 0.0
18/12:00pm 21.4 16.0 9.6 47 6.3 WSW 28 41 15 22 1013.6 1013.3 0.0
18/11:30am 21.2 15.1 8.1 43 6.8 WSW 30 41 16 22 1013.5 - 0.0
18/11:00am 20.4 14.7 9.9 51 5.6 WSW 30 43 16 23 1013.4 - 0.0
18/10:30am 21.3 16.1 11.6 54 5.4 WSW 30 39 16 21 1013.1 - 0.0
18/10:00am 20.4 15.1 9.9 51 5.6 WSW 28 35 15 19 1012.8 - 0.0
18/09:30am 19.9 15.3 10.9 56 4.9 WSW 26 37 14 20 1012.7 - 0.0
18/09:00am 19.6 16.0 10.6 56 4.9 WSW 20 28 11 15 1012.4 1012.1 0.0
18/08:30am 19.1 17.2 10.6 58 4.6 SW 11 19 6 10 1011.9 - 0.0
18/08:00am 17.2 16.9 10.1 63 3.8 E 2 6 1 3 1011.9 - 0.0
18/07:30am 14.4 12.8 8.6 68 2.9 E 7 9 4 5 1011.7 - 0.0
18/07:00am 10.7 8.8 7.4 80 1.6 E 7 9 4 5 1011.3 - 0.0
18/06:30am 8.4 5.8 6.2 86 1.0 ENE 9 11 5 6 1010.7 - 0.0
18/06:00am 7.2 4.0 5.0 86 1.0 ESE 11 13 6 7 1010.4 1010.1 0.0
18/05:30am 8.4 5.6 5.3 81 1.4 ESE 9 13 5 7 1010.2 - 0.0
18/05:00am 8.4 5.7 5.7 83 1.2 ESE 9 9 5 5 1009.9 - 0.0
18/04:30am 8.5 5.8 5.4 81 1.4 SE 9 11 5 6 1009.7 - 0.0
18/04:00am 9.1 6.5 6.2 82 1.3 ESE 9 11 5 6 1009.3 - 0.0
18/03:30am 8.7 6.0 5.8 82 1.3 ESE 9 11 5 6 1009.0 - 0.0
18/03:00am 10.1 7.6 6.6 79 1.6 SSE 9 11 5 6 1009.0 1008.7 0.0
18/02:30am 11.0 8.8 7.7 80 1.6 SSE 9 13 5 7 1009.0 - 0.0
18/02:00am 11.4 8.1 8.1 80 1.6 S 15 17 8 9 1008.9 - 0.0
18/01:30am 11.6 9.0 7.7 77 1.9 SSE 11 13 6 7 1008.8 - 0.0
18/01:00am 12.4 9.5 8.3 76 2.0 SSE 13 15 7 8 1008.9 - 0.0
18/12:30am 13.2 10.1 8.9 75 2.2 SSE 15 17 8 9 1009.1 - 0.0
18/12:00am 12.4 9.3 8.7 78 1.9 SSE 15 15 8 8 1009.4 1009.1 0.0
 
Date/Time
CDT
Temp
°C
App
Temp
°C
Dew
Point
Rel
Hum
%
Delta-T
°C
Wind Press
QNH
hPa
Press
MSL
hPa
Rain
since 9 am
mm
Dir
 
Spd
km/h
Gust
km/h
Spd
kts
Gust
kts
17/11:30pm 12.0 8.8 8.5 79 1.7 S 15 17 8 9 1009.8 - 0.0
17/11:00pm 12.5 9.7 8.6 77 1.9 SSE 13 17 7 9 1010.0 - 0.0
17/10:30pm 13.5 10.8 9.0 74 2.3 S 13 15 7 8 1009.8 - 0.0
17/10:00pm 15.7 12.5 10.0 69 3.0 SSW 17 20 9 11 1009.6 - 0.0
17/09:30pm 16.4 12.6 9.8 65 3.5 SSW 20 26 11 14 1009.3 - 0.0
17/09:00pm 17.5 12.2 9.9 61 4.0 SW 28 39 15 21 1009.0 1008.7 0.0
17/08:30pm 19.1 13.5 7.2 46 6.0 SW 26 33 14 18 1008.4 - 0.0
17/08:00pm 20.7 15.7 6.6 40 7.1 WSW 22 30 12 16 1007.7 - 0.0
17/07:30pm 22.5 18.2 7.1 37 8.0 WSW 19 26 10 14 1007.3 - 0.0
17/07:00pm 22.2 17.8 4.7 32 8.6 SSW 17 22 9 12 1007.0 - 0.0
17/06:30pm 23.4 19.8 4.9 30 9.2 S 13 22 7 12 1006.7 - 0.0
17/06:00pm 23.6 19.9 6.4 33 8.9 WSW 15 20 8 11 1007.0 1006.7 0.0
17/05:30pm 23.3 19.1 5.7 32 8.9 WSW 17 26 9 14 1007.2 - 0.0
17/05:00pm 23.6 19.5 6.4 33 8.8 WSW 17 24 9 13 1007.4 - 0.0
17/04:30pm 24.1 20.1 6.8 33 9.0 SW 17 28 9 15 1007.8 - 0.0
17/04:00pm 22.9 18.3 5.8 33 8.6 SW 19 28 10 15 1008.3 - 0.0
17/03:30pm 22.6 18.8 6.0 34 8.4 W 15 24 8 13 1008.8 - 0.0
17/03:00pm 22.4 18.1 5.4 33 8.5 WSW 17 24 9 13 1009.1 1008.8 0.0
17/02:30pm 21.2 17.4 5.9 37 7.7 SSW 15 22 8 12 1009.1 - 0.0
17/02:00pm 21.1 16.6 6.2 38 7.5 WSW 19 28 10 15 1009.6 - 0.0
17/01:30pm 21.9 17.4 7.0 38 7.7 WSW 20 32 11 17 1009.8 - 0.0
17/01:00pm 20.8 16.0 5.6 37 7.6 WSW 20 32 11 17 1010.1 - 0.0
17/12:30pm 21.0 16.4 5.8 37 7.6 SW 19 32 10 17 1010.4 - 0.0
17/12:00pm 21.2 16.5 5.1 35 8.0 W 19 28 10 15 1010.6 1010.3 0.0
17/11:30am 20.3 17.9 5.1 37 7.5 SSW 7 17 4 9 1010.8 - 0.0
17/11:00am 19.4 16.4 4.3 37 7.2 NW 9 17 5 9 1010.8 - 0.0

Other Formats:

Comma delimited format used in spreadsheet applications
http://www.bom.gov.au/fwo/IDS60801/IDS60801.94685.axf

JavaScript Object Notation format (JSON) in row-major order
http://www.bom.gov.au/fwo/IDS60801/IDS60801.94685.json